• Join FlightAware (Why Join?)
  • Login
  • US Flag 
07:45AM EDT


 

Airport Tracker/Info


-or-


 

Live Flight TrackerFlight Track Log ✈ SKW5305 ✈ 03-May-2013 ✈ KSEA - KPDX

Flight Track Log - Related Links

Times and Time Zones

All times are in EDT time to prevent confusion due to time zone crossing. See the SKW5305 flight status page for this flight to view local times or setup timezone preferences in your user account.

Time Position Orientation Groundspeed Altitude Reporting Facility
EDT Latitude Longitude Course Direction KTS MPH feet Rate Location/Type
08:39PM 47.4483 -122.3097 180° South 124 143 800  Level Seattle Center
08:40PM 47.4594 -122.3100 359° North 125 144 1,400 1,560 Climbing Seattle Center
08:40PM 47.4747 -122.3122 354° North 123 142 2,000 1,560 Climbing Seattle Center
08:41PM 47.4919 -122.3414 311° West 181 208 3,000 1,860 Climbing Seattle Center
08:41PM 47.4886 -122.3739 261° West 180 207 3,900 1,560 Climbing Seattle Center
08:42PM 47.4619 -122.4308 235° Southwest 198 228 5,300 1,320 Climbing Seattle Center
08:43PM 47.4050 -122.4217 174° South 207 238 6,700 1,380 Climbing Seattle Center
08:44PM 47.3411 -122.4122 174° South 215 247 8,200 1,440 Climbing Seattle Center
08:45PM 47.1011 -122.3667 180° South  Level Estimated
08:45PM 47.2808 -122.3972 170° South 220 253 9,700  Level Seattle Center
08:46PM 47.2214 -122.3792 168° South 218 251 10,700 960 Climbing Seattle Center
08:47PM 47.1578 -122.3628 170° South 233 268 11,700 960 Climbing Seattle Center
08:48PM 47.0869 -122.3450 170° South 240 276 12,700 840 Climbing Seattle Center
08:49PM 47.0219 -122.3272 169° South 238 274 13,500 780 Climbing Seattle Center
08:50PM 46.9536 -122.3103 170° South 249 287 14,300 720 Climbing Seattle Center
08:51PM 46.8825 -122.3042 177° South 260 299 15,000 300 Climbing Seattle Center
08:52PM 46.8014 -122.3111 183° South 273 314 15,000  Level Seattle Center
08:53PM 46.7336 -122.3119 180° South 278 320 15,000  Level Seattle Center
08:54PM 46.6558 -122.3094 179° South 283 326 15,000  Level Seattle Center
08:55PM 46.5769 -122.3103 180° South 289 333 15,000  Level Seattle Center
08:56PM 46.4836 -122.3122 181° South 284 327 15,000 -60 Level Seattle Center
08:57PM 46.4069 -122.3103 179° South 280 322 14,900 -300 Descending Seattle Center
08:58PM 46.3283 -122.3108 180° South 284 327 14,400 -900 Descending Seattle Center
08:59PM 46.2697 -122.3147 183° South 300 345 13,400 -1,620 Descending Seattle Center
08:59PM 46.2444 -122.3153 181° South 301 346 12,800 -1,920 Descending Seattle Center
09:00PM 46.1883 -122.3519 204° Southwest 312 359 11,500 -1,920 Descending Seattle Center
09:00PM 46.1672 -122.3614 197° South 305 351 10,900 -1,620 Descending Seattle Center
09:01PM 46.1106 -122.3969 204° Southwest 305 351 9,900 -1,140 Descending Seattle Center
09:01PM 46.0919 -122.4092 204° Southwest 298 343 9,800 -240 Descending Seattle Center
09:02PM 46.0314 -122.4331 195° South 276 318 9,700 -420 Descending Seattle Center
09:02PM 46.0189 -122.4408 203° Southwest 281 323 9,400 -1,200 Descending Seattle Center
09:03PM 45.9519 -122.4381 178° South 290 334 8,500 -1,140 Descending Seattle Center
09:04PM 45.9347 -122.4375 179° South 302 348 8,300 -1,020 Descending Seattle Center
09:04PM 45.8722 -122.4400 182° South 286 329 7,500 -1,020 Descending Seattle Center
09:05PM 45.8569 -122.4392 178° South 284 327 7,300 -960 Descending Seattle Center
09:06PM 45.7664 -122.4436 182° South 274 315 6,200 -1,020 Descending Seattle Center
09:06PM 45.7206 -122.4408 178° South 262 302 5,700 -900 Descending Seattle Center
09:07PM 45.6944 -122.4436 184° South 264 304 5,300 -720 Descending Seattle Center
09:07PM 45.6519 -122.4444 181° South 242 278 5,000 -720 Descending Seattle Center
09:08PM 45.6281 -122.4425 177° South 248 285 4,600 -1,020 Descending Seattle Center
09:08PM 45.5908 -122.4325 169° South 223 257 4,000 -1,380 Descending Seattle Center
09:09PM 45.5692 -122.4278 171° South 225 259 3,200 -2,040 Descending Seattle Center